Time;durP1;ratioP1;P1;durP2;ratioP2;P2;SDS_P1;SDS_P2;PMS_P1;PMS_P2;Temp;Humidity;BMP_temperature;BMP_pressure;BME280_temperature;BME280_humidity;BME280_pressure;Samples;Min_cycle;Max_cycle;Signal;HPM_P1;HPM_P2
2021/01/20 05:06:01;;;;;;;1.90;1.80;;;;;;;22.64;45.58;97851.25;22099840;23;20305;-76
2021/01/20 05:16:03;;;;;;;2.00;1.73;;;;;;;22.64;45.82;97840.81;20211643;29;20219;-75
2021/01/20 05:26:05;;;;;;;2.93;2.00;;;;;;;22.72;45.76;97839.84;20190228;29;20314;-76
2021/01/20 05:36:07;;;;;;;1.83;1.73;;;;;;;22.78;45.63;97831.22;20180065;29;20219;-74
2021/01/20 05:46:10;;;;;;;1.77;1.67;;;;;;;22.76;45.60;97817.56;20165840;29;20283;-73
2021/01/20 05:56:12;;;;;;;1.70;1.60;;;;;;;22.75;45.46;97821.16;20215016;29;20227;-74
2021/01/20 06:06:15;;;;;;;1.70;1.60;;;;;;;22.70;45.32;97815.72;20173978;29;20228;-75
2021/01/20 06:16:18;;;;;;;1.60;1.50;;;;;;;22.66;45.47;97822.31;20177449;29;20227;-74
2021/01/20 06:26:21;;;;;;;2.87;2.00;;;;;;;22.68;45.59;97820.34;20204013;29;20222;-75
2021/01/20 06:36:32;;;;;;;2.33;1.80;;;;;;;22.70;45.95;97807.91;20193245;29;20223;-75
2021/01/20 06:46:34;;;;;;;2.43;1.60;;;;;;;22.72;46.07;97814.56;20175438;29;20223;-75
2021/01/20 06:56:37;;;;;;;2.30;1.63;;;;;;;22.73;45.89;97823.16;20176248;29;20600;-75
2021/01/20 07:06:42;;;;;;;2.00;1.80;;;;;;;22.73;45.91;97823.97;20172583;29;20280;-75
2021/01/20 07:16:44;;;;;;;2.30;1.83;;;;;;;22.71;46.15;97819.94;20166098;29;20275;-75
2021/01/20 07:26:47;;;;;;;1.87;1.77;;;;;;;22.69;45.98;97798.47;20162307;29;20227;-74
2021/01/20 07:36:49;;;;;;;1.80;1.70;;;;;;;22.68;45.97;97809.88;20185185;29;20223;-74
2021/01/20 07:46:58;;;;;;;1.73;1.63;;;;;;;22.69;45.97;97803.69;20159364;29;20252;-74
2021/01/20 07:56:59;;;;;;;14.77;4.77;;;;;;;22.52;42.31;97807.59;20172129;29;20218;-76
2021/01/20 08:07:02;;;;;;;7.00;3.03;;;;;;;22.20;40.93;97803.78;20182151;29;20291;-71
2021/01/20 08:17:03;;;;;;;3.00;2.60;;;;;;;22.44;41.44;97810.34;20187022;29;20211;-75
2021/01/20 08:27:06;;;;;;;4.43;2.17;;;;;;;22.59;42.13;97805.84;20181056;29;20260;-73
2021/01/20 08:37:09;;;;;;;2.37;1.80;;;;;;;22.66;42.49;97807.47;20137283;29;20275;-73
2021/01/20 08:47:11;;;;;;;3.30;1.50;;;;;;;22.76;42.59;97814.94;20182370;29;20231;-73
2021/01/20 08:57:17;;;;;;;4.03;1.47;;;;;;;22.82;42.67;97801.13;20180458;29;20291;-72
2021/01/20 09:07:20;;;;;;;2.13;1.60;;;;;;;22.91;42.90;97799.91;20157766;29;20259;-73
2021/01/20 09:17:21;;;;;;;1.50;1.40;;;;;;;23.01;42.97;97795.13;20170421;29;20216;-74
2021/01/20 09:27:24;;;;;;;5.00;2.30;;;;;;;23.08;43.02;97791.53;20186532;29;20652;-72
2021/01/20 09:37:25;;;;;;;2.70;1.37;;;;;;;23.17;43.26;97784.31;20194791;29;20231;-73
2021/01/20 09:47:28;;;;;;;2.40;1.43;;;;;;;23.23;43.33;97780.91;20192046;29;20282;-74
2021/01/20 09:57:29;;;;;;;1.97;1.83;;;;;;;23.27;43.42;97782.16;20159226;29;20275;-75
2021/01/20 10:07:33;;;;;;;2.60;1.60;;;;;;;23.26;43.63;97770.09;20162119;29;20227;-74
2021/01/20 10:17:34;;;;;;;1.80;1.70;;;;;;;23.26;43.46;97752.56;20174056;29;20568;-76
2021/01/20 10:27:37;;;;;;;2.53;2.17;;;;;;;23.29;43.67;97720.03;20164932;29;20244;-74
2021/01/20 10:37:39;;;;;;;3.60;1.73;;;;;;;23.29;43.76;97699.13;20176771;29;20899;-76
2021/01/20 10:47:41;;;;;;;2.40;1.60;;;;;;;23.26;43.65;97691.66;20159452;29;20246;-74
2021/01/20 10:57:43;;;;;;;6.40;1.90;;;;;;;23.23;43.99;97687.63;20182489;29;20215;-75
2021/01/20 11:07:45;;;;;;;2.23;2.10;;;;;;;23.20;44.20;97666.28;20205732;29;20711;-75
2021/01/20 11:17:49;;;;;;;2.53;2.00;;;;;;;23.15;44.25;97643.38;20186164;29;20223;-75
2021/01/20 11:27:52;;;;;;;2.60;1.87;;;;;;;23.14;44.31;97627.91;20173936;29;20260;-76
2021/01/20 11:37:56;;;;;;;3.30;1.73;;;;;;;23.14;44.28;97614.84;20174215;29;20707;-75
2021/01/20 11:47:58;;;;;;;2.93;1.77;;;;;;;23.18;44.22;97602.97;20167227;29;20231;-74
2021/01/20 11:58:00;;;;;;;2.03;1.83;;;;;;;23.24;44.29;97571.59;20143639;29;20228;-73
2021/01/20 12:08:03;;;;;;;2.93;1.60;;;;;;;23.28;44.03;97561.56;20143410;29;20227;-76
2021/01/20 12:18:05;;;;;;;2.40;1.80;;;;;;;23.37;44.06;97547.25;20148188;29;20267;-77
2021/01/20 12:28:08;;;;;;;2.80;1.80;;;;;;;23.49;44.49;97524.72;20198286;29;20222;-77
2021/01/20 12:38:09;;;;;;;3.70;2.07;;;;;;;23.59;44.38;97517.22;20190209;29;20239;-76
2021/01/20 12:48:12;;;;;;;2.07;1.87;;;;;;;23.63;44.56;97509.78;20153432;29;20758;-78
2021/01/20 12:58:14;;;;;;;2.23;1.70;;;;;;;23.67;44.87;97501.28;20138009;29;20276;-74
2021/01/20 13:08:17;;;;;;;6.20;2.57;;;;;;;23.74;44.79;97478.53;20148006;29;20259;-76
2021/01/20 13:18:18;;;;;;;4.50;2.20;;;;;;;23.77;44.75;97453.75;20135306;29;20223;-76
2021/01/20 13:28:21;;;;;;;2.40;2.20;;;;;;;23.78;44.59;97443.06;20126858;29;20231;-76
2021/01/20 13:38:22;;;;;;;4.00;2.10;;;;;;;23.79;44.72;97442.06;20147312;29;20735;-76
2021/01/20 13:48:25;;;;;;;3.10;2.13;;;;;;;23.79;44.93;97434.22;20137843;29;20272;-76
2021/01/20 13:58:26;;;;;;;2.10;1.77;;;;;;;23.78;44.87;97432.59;20151699;29;20220;-76
2021/01/20 14:08:29;;;;;;;2.60;2.00;;;;;;;23.80;44.92;97425.34;20160251;29;20227;-76
2021/01/20 14:18:31;;;;;;;4.37;2.20;;;;;;;23.77;44.95;97433.63;20149601;29;20219;-78
2021/01/20 14:28:34;;;;;;;2.40;1.87;;;;;;;23.76;44.82;97429.44;20137581;29;20258;-75
2021/01/20 14:38:35;;;;;;;2.13;1.70;;;;;;;23.74;44.94;97428.81;20159234;29;20286;-76
2021/01/20 14:48:38;;;;;;;3.13;2.00;;;;;;;23.69;44.82;97439.13;20147269;29;20290;-75
2021/01/20 14:58:39;;;;;;;3.80;2.40;;;;;;;23.65;44.87;97424.03;20150053;29;20588;-75
2021/01/20 15:08:42;;;;;;;1.80;1.70;;;;;;;23.63;44.89;97424.25;20149590;29;20279;-75
2021/01/20 15:18:43;;;;;;;2.30;2.10;;;;;;;23.59;45.24;97417.84;20152528;29;20216;-75
2021/01/20 15:28:46;;;;;;;5.33;3.30;;;;;;;23.28;40.39;97415.97;20147264;29;20219;-73
2021/01/20 15:38:47;;;;;;;2.37;2.07;;;;;;;23.19;42.42;97416.41;20126518;29;20287;-73
2021/01/20 15:48:50;;;;;;;3.00;2.63;;;;;;;23.23;43.52;97397.47;20157943;29;20236;-72
2021/01/20 15:58:51;;;;;;;2.60;2.40;;;;;;;23.24;44.21;97398.28;20130731;29;20211;-73
2021/01/20 16:08:56;;;;;;;3.07;2.23;;;;;;;23.26;44.45;97389.19;20144854;29;20235;-72
2021/01/20 16:18:57;;;;;;;2.10;1.90;;;;;;;23.37;44.96;97382.56;20132554;29;20231;-70
2021/01/20 16:29:00;;;;;;;3.17;2.27;;;;;;;23.41;45.40;97386.38;20107780;29;20305;-71
2021/01/20 16:39:01;;;;;;;3.60;2.17;;;;;;;23.46;46.33;97391.78;20106159;29;20396;-72
2021/01/20 16:49:04;;;;;;;3.50;2.20;;;;;;;23.49;46.85;97386.13;20107740;29;20860;-73
2021/01/20 16:59:05;;;;;;;1.93;1.83;;;;;;;23.55;47.29;97401.78;20098301;29;20324;-73
2021/01/20 17:09:08;;;;;;;2.77;2.57;;;;;;;23.58;47.38;97390.06;20109743;29;20747;-73
2021/01/20 17:19:10;;;;;;;4.23;2.50;;;;;;;23.58;47.60;97377.00;20109284;29;20331;-72
2021/01/20 17:29:12;;;;;;;3.50;2.30;;;;;;;23.54;47.38;97370.59;20129746;29;20304;-73
2021/01/20 17:39:13;;;;;;;7.00;2.83;;;;;;;23.48;47.70;97358.34;20166435;29;20851;-73
2021/01/20 17:49:16;;;;;;;3.50;2.63;;;;;;;23.43;47.95;97366.81;20124664;29;20344;-74
2021/01/20 17:59:19;;;;;;;5.87;2.73;;;;;;;23.44;47.97;97370.25;20125583;29;20625;-72
2021/01/20 18:09:21;;;;;;;3.03;2.43;;;;;;;23.44;47.77;97362.41;20122217;29;20259;-73
2021/01/20 18:19:23;;;;;;;5.03;2.20;;;;;;;23.42;47.83;97353.97;20131058;29;20310;-73
2021/01/20 18:29:25;;;;;;;3.83;2.30;;;;;;;23.40;48.03;97353.38;20124011;29;20320;-73
2021/01/20 18:39:27;;;;;;;4.43;2.00;;;;;;;23.46;47.74;97355.16;20120203;29;20297;-74
2021/01/20 18:49:29;;;;;;;5.43;2.60;;;;;;;23.43;47.82;97351.13;20152192;29;20267;-74
2021/01/20 18:59:31;;;;;;;3.20;2.40;;;;;;;23.45;48.20;97336.06;20150228;29;20274;-75
2021/01/20 19:09:33;;;;;;;3.07;2.70;;;;;;;23.44;48.20;97331.81;20148258;29;20223;-79
2021/01/20 19:19:35;;;;;;;2.60;2.40;;;;;;;23.41;48.36;97323.63;20130222;29;20219;-81
2021/01/20 19:29:38;;;;;;;2.90;2.20;;;;;;;23.40;48.43;97314.16;20166127;29;20322;-82
2021/01/20 19:39:39;;;;;;;3.73;2.27;;;;;;;23.34;48.35;97299.31;20158005;29;20245;-79
2021/01/20 19:49:42;;;;;;;2.80;2.03;;;;;;;23.38;48.43;97296.06;20136734;29;20227;-81
2021/01/20 19:59:43;;;;;;;7.90;2.20;;;;;;;23.37;48.28;97283.22;20151816;29;20633;-81
2021/01/20 20:09:46;;;;;;;3.77;2.47;;;;;;;23.36;48.34;97264.09;20137409;29;20235;-79
2021/01/20 20:19:48;;;;;;;3.80;1.80;;;;;;;23.36;48.45;97252.88;20166998;29;20269;-77
2021/01/20 20:29:50;;;;;;;1.90;1.80;;;;;;;23.32;48.27;97255.09;20156121;29;20252;-81
2021/01/20 20:39:52;;;;;;;3.10;2.10;;;;;;;23.35;48.46;97259.09;20155966;29;20223;-78
2021/01/20 20:49:54;;;;;;;3.00;2.30;;;;;;;23.34;48.33;97247.03;20147562;29;20276;-77
2021/01/20 20:59:56;;;;;;;2.33;2.13;;;;;;;23.32;48.30;97244.63;20150478;29;20267;-75
2021/01/20 21:09:59;;;;;;;2.70;2.13;;;;;;;23.30;48.23;97262.34;20169082;29;20235;-76
2021/01/20 21:20:00;;;;;;;2.33;2.00;;;;;;;23.29;48.31;97252.88;20164182;29;20227;-76
2021/01/20 21:30:03;;;;;;;1.80;1.70;;;;;;;23.27;48.37;97261.97;20176092;29;20294;-75
2021/01/20 21:40:06;;;;;;;2.30;2.10;;;;;;;23.25;48.47;97269.19;20167751;29;20219;-73
2021/01/20 21:50:09;;;;;;;3.50;2.20;;;;;;;23.24;48.51;97263.13;20162082;29;20267;-77
2021/01/20 22:00:12;;;;;;;2.47;2.27;;;;;;;23.27;48.61;97261.97;20150348;29;20257;-76
2021/01/20 22:10:15;;;;;;;2.40;1.83;;;;;;;23.29;48.56;97249.47;20154435;29;20275;-76
2021/01/20 22:20:17;;;;;;;2.40;1.80;;;;;;;23.28;48.57;97245.25;20155568;29;20191;-78
2021/01/20 22:30:21;;;;;;;2.73;2.53;;;;;;;23.25;48.39;97250.88;20154222;29;20240;-76
2021/01/20 22:40:23;;;;;;;3.73;2.33;;;;;;;23.23;48.66;97245.06;20155387;29;20196;-77
2021/01/20 22:50:25;;;;;;;2.27;2.07;;;;;;;23.21;48.50;97237.44;20153072;29;20587;-76
2021/01/20 23:00:28;;;;;;;4.53;2.33;;;;;;;23.20;48.31;97203.66;20158613;29;20204;-76
2021/01/20 23:10:31;;;;;;;3.17;2.03;;;;;;;23.14;48.48;97207.13;20160622;29;20235;-78
2021/01/20 23:20:33;;;;;;;3.30;2.10;;;;;;;23.14;48.36;97214.97;20127827;29;20224;-76
2021/01/20 23:30:35;;;;;;;2.10;1.90;;;;;;;23.10;48.44;97191.06;20144297;29;20268;-76
2021/01/20 23:40:37;;;;;;;3.93;1.80;;;;;;;23.08;48.49;97174.81;20123913;29;20239;-76
2021/01/20 23:50:39;;;;;;;4.23;2.10;;;;;;;23.06;48.40;97165.56;20133144;29;20283;-76
